Time,TemperatureF,DewpointF,PressureIn,WindDirection,WindDirectionDegrees,WindSpeedMPH,WindSpeedGustMPH,Humidity,HourlyPrecipIn,Conditions,Clouds,dailyrainin,SoftwareType,DateUTC
2013-01-14 00:00:00,52.2,49.0,29.83,South,173,7.0,11.0,89,0.00,,,0.00,WUHU216DAVISVP2,2013-01-14 05:00:00,
2013-01-14 00:02:00,52.2,49.0,29.83,SSE,152,5.0,11.0,89,0.00,,,0.00,WUHU216DAVISVP2,2013-01-14 05:02:00,
2013-01-14 00:03:00,52.2,49.0,29.83,SSE,158,2.0,11.0,89,0.00,,,0.00,WUHU216DAVISVP2,2013-01-14 05:03:00,
2013-01-14 00:08:00,52.3,49.1,29.82,SSW,195,5.0,12.0,89,0.00,,,0.00,WUHU216DAVISVP2,2013-01-14 05:08:00,
2013-01-14 00:13:00,52.3,49.1,29.81,SSE,148,4.0,12.0,89,0.00,,,0.00,WUHU216DAVISVP2,2013-01-14 05:13:00,
2013-01-14 00:18:00,52.3,48.8,29.80,SE,143,8.0,13.0,88,0.00,,,0.00,WUHU216DAVISVP2,2013-01-14 05:18:00,
2013-01-14 00:23:00,52.2,48.7,29.79,ESE,120,4.0,14.0,88,0.00,,,0.00,WUHU216DAVISVP2,2013-01-14 05:23:00,
2013-01-14 00:28:00,52.1,48.9,29.76,SE,134,12.0,14.0,89,0.00,,,0.00,WUHU216DAVISVP2,2013-01-14 05:28:00,
2013-01-14 00:33:00,52.0,48.9,29.77,SSW,195,3.0,15.0,89,0.00,,,0.00,WUHU216DAVISVP2,2013-01-14 05:33:00,
2013-01-14 00:38:00,52.1,48.9,29.78,SSE,153,9.0,16.0,89,0.00,,,0.00,WUHU216DAVISVP2,2013-01-14 05:38:00,
2013-01-14 00:43:00,52.1,48.6,29.77,South,183,7.0,16.0,88,0.00,,,0.00,WUHU216DAVISVP2,2013-01-14 05:43:00,
2013-01-14 00:48:00,52.3,48.8,29.76,SSW,194,7.0,18.0,88,0.00,,,0.00,WUHU216DAVISVP2,2013-01-14 05:48:00,
2013-01-14 00:53:00,52.3,48.8,29.76,South,169,9.0,18.0,88,0.00,,,0.00,WUHU216DAVISVP2,2013-01-14 05:53:00,
2013-01-14 00:58:00,52.6,49.1,29.79,SSE,149,14.0,18.0,88,0.00,,,0.00,WUHU216DAVISVP2,2013-01-14 05:58:00,
2013-01-14 01:03:00,52.9,49.4,29.78,SSW,202,5.0,18.0,88,0.00,,,0.00,WUHU216DAVISVP2,2013-01-14 06:03:00,
2013-01-14 01:08:00,53.1,49.3,29.78,SSW,200,5.0,15.0,87,0.00,,,0.00,WUHU216DAVISVP2,2013-01-14 06:08:00,
2013-01-14 01:13:00,53.2,49.4,29.79,SE,145,4.0,15.0,87,0.00,,,0.00,WUHU216DAVISVP2,2013-01-14 06:13:00,
2013-01-14 01:18:00,53.2,49.4,29.80,SSW,197,9.0,15.0,87,0.00,,,0.00,WUHU216DAVISVP2,2013-01-14 06:18:00,
2013-01-14 01:23:00,53.0,49.2,29.80,SSW,193,3.0,15.0,87,0.00,,,0.00,WUHU216DAVISVP2,2013-01-14 06:23:00,
2013-01-14 01:28:00,52.9,49.1,29.81,South,180,3.0,14.0,87,0.00,,,0.00,WUHU216DAVISVP2,2013-01-14 06:28:00,
2013-01-14 01:33:00,52.9,49.1,29.81,West,262,10.0,14.0,87,0.00,,,0.00,WUHU216DAVISVP2,2013-01-14 06:33:00,
2013-01-14 01:38:00,52.9,49.1,29.82,SE,139,1.0,12.0,87,0.00,,,0.00,WUHU216DAVISVP2,2013-01-14 06:38:00,
2013-01-14 01:43:00,52.9,49.1,29.81,SE,146,3.0,13.0,87,0.00,,,0.00,WUHU216DAVISVP2,2013-01-14 06:43:00,
2013-01-14 01:48:00,52.9,49.1,29.81,South,191,10.0,13.0,87,0.00,,,0.00,WUHU216DAVISVP2,2013-01-14 06:48:00,
2013-01-14 01:53:00,52.9,49.1,29.81,South,183,3.0,12.0,87,0.00,,,0.00,WUHU216DAVISVP2,2013-01-14 06:53:00,
2013-01-14 01:58:00,52.7,48.9,29.81,SE,124,6.0,12.0,87,0.00,,,0.00,WUHU216DAVISVP2,2013-01-14 06:58:00,
2013-01-14 02:03:00,52.7,48.9,29.82,South,171,5.0,14.0,87,0.00,,,0.00,WUHU216DAVISVP2,2013-01-14 07:03:00,
2013-01-14 02:08:00,52.6,48.8,29.82,SSW,193,3.0,14.0,87,0.00,,,0.00,WUHU216DAVISVP2,2013-01-14 07:08:00,
2013-01-14 02:13:00,52.6,48.8,29.82,SSE,162,7.0,14.0,87,0.00,,,0.00,WUHU216DAVISVP2,2013-01-14 07:13:00,
2013-01-14 02:18:00,52.5,49.0,29.82,WSW,255,3.0,13.0,88,0.00,,,0.00,WUHU216DAVISVP2,2013-01-14 07:18:00,
2013-01-14 02:23:00,52.5,49.0,29.83,South,184,2.0,13.0,88,0.00,,,0.00,WUHU216DAVISVP2,2013-01-14 07:23:00,
2013-01-14 02:28:00,52.5,49.0,29.83,South,180,2.0,13.0,88,0.00,,,0.00,WUHU216DAVISVP2,2013-01-14 07:28:00,
2013-01-14 02:33:00,52.5,49.0,29.82,SE,131,1.0,13.0,88,0.00,,,0.00,WUHU216DAVISVP2,2013-01-14 07:33:00,
2013-01-14 02:38:00,52.7,49.2,29.83,South,173,4.0,12.0,88,0.00,,,0.00,WUHU216DAVISVP2,2013-01-14 07:38:00,
2013-01-14 02:43:00,52.7,49.2,29.83,South,183,3.0,9.0,88,0.00,,,0.00,WUHU216DAVISVP2,2013-01-14 07:43:00,
2013-01-14 02:48:00,52.8,49.3,29.83,SSE,165,5.0,11.0,88,0.00,,,0.00,WUHU216DAVISVP2,2013-01-14 07:48:00,
2013-01-14 02:53:00,52.9,49.4,29.83,SSW,208,4.0,12.0,88,0.00,,,0.00,WUHU216DAVISVP2,2013-01-14 07:53:00,
2013-01-14 02:58:00,53.0,49.5,29.84,SSW,197,1.0,12.0,88,0.00,,,0.00,WUHU216DAVISVP2,2013-01-14 07:58:00,
2013-01-14 03:03:00,53.2,49.7,29.86,West,274,3.0,12.0,88,0.00,,,0.00,WUHU216DAVISVP2,2013-01-14 08:03:00,
2013-01-14 03:08:00,53.2,49.7,29.88,West,260,3.0,10.0,88,0.00,,,0.00,WUHU216DAVISVP2,2013-01-14 08:08:00,
2013-01-14 03:13:00,53.3,49.5,29.89,West,281,13.0,19.0,87,0.00,,,0.00,WUHU216DAVISVP2,2013-01-14 08:13:00,
2013-01-14 03:18:00,53.0,48.9,29.89,West,279,9.0,19.0,86,0.00,,,0.00,WUHU216DAVISVP2,2013-01-14 08:18:00,
2013-01-14 03:23:00,52.5,48.1,29.90,West,264,6.0,22.0,85,0.00,,,0.00,WUHU216DAVISVP2,2013-01-14 08:23:00,
2013-01-14 03:28:00,52.1,47.1,29.91,West,266,5.0,24.0,83,0.00,,,0.00,WUHU216DAVISVP2,2013-01-14 08:28:00,
2013-01-14 03:33:00,51.4,47.0,29.92,West,281,7.0,24.0,85,0.00,,,0.00,WUHU216DAVISVP2,2013-01-14 08:33:00,
2013-01-14 03:38:00,50.8,46.8,29.93,West,274,6.0,24.0,86,0.00,,,0.00,WUHU216DAVISVP2,2013-01-14 08:38:00,
2013-01-14 03:43:00,50.3,46.6,29.93,WNW,300,11.0,24.0,87,0.00,,,0.00,WUHU216DAVISVP2,2013-01-14 08:43:00,
2013-01-14 03:48:00,49.7,46.3,29.94,WNW,287,22.0,22.0,88,0.00,,,0.00,WUHU216DAVISVP2,2013-01-14 08:48:00,
2013-01-14 03:53:00,48.9,45.2,29.94,WNW,282,6.0,23.0,87,0.00,,,0.00,WUHU216DAVISVP2,2013-01-14 08:53:00,
2013-01-14 03:58:00,48.1,44.4,29.95,WNW,297,11.0,23.0,87,0.00,,,0.00,WUHU216DAVISVP2,2013-01-14 08:58:00,
2013-01-14 04:03:00,47.6,43.9,29.95,NW,326,10.0,23.0,87,0.00,,,0.00,WUHU216DAVISVP2,2013-01-14 09:03:00,
2013-01-14 04:08:00,47.4,43.4,29.95,WNW,302,6.0,23.0,86,0.00,,,0.00,WUHU216DAVISVP2,2013-01-14 09:08:00,
2013-01-14 04:13:00,47.2,43.5,29.97,WNW,294,5.0,23.0,87,0.00,,,0.00,WUHU216DAVISVP2,2013-01-14 09:13:00,
2013-01-14 04:18:00,47.2,43.2,29.97,West,263,14.0,23.0,86,0.00,,,0.00,WUHU216DAVISVP2,2013-01-14 09:18:00,
2013-01-14 04:23:00,47.1,42.8,29.97,West,280,10.0,23.0,85,0.00,,,0.00,WUHU216DAVISVP2,2013-01-14 09:23:00,
2013-01-14 04:28:00,46.9,42.6,29.97,WNW,295,9.0,23.0,85,0.00,,,0.00,WUHU216DAVISVP2,2013-01-14 09:28:00,
2013-01-14 04:33:00,46.8,42.5,29.97,West,281,9.0,23.0,85,0.00,,,0.00,WUHU216DAVISVP2,2013-01-14 09:33:00,
2013-01-14 04:38:00,46.7,42.7,29.97,WNW,284,7.0,23.0,86,0.00,,,0.00,WUHU216DAVISVP2,2013-01-14 09:38:00,
2013-01-14 04:43:00,46.6,42.6,29.97,WNW,297,7.0,21.0,86,0.00,,,0.00,WUHU216DAVISVP2,2013-01-14 09:43:00,
2013-01-14 04:48:00,46.5,42.5,29.97,West,278,7.0,16.0,86,0.00,,,0.00,WUHU216DAVISVP2,2013-01-14 09:48:00,
2013-01-14 04:53:00,46.4,42.4,29.97,WNW,297,6.0,14.0,86,0.00,,,0.00,WUHU216DAVISVP2,2013-01-14 09:53:00,
2013-01-14 04:58:00,46.3,42.0,29.97,WSW,239,7.0,14.0,85,0.00,,,0.00,WUHU216DAVISVP2,2013-01-14 09:58:00,
2013-01-14 05:03:00,46.3,42.3,29.98,West,262,3.0,12.0,86,0.00,,,0.00,WUHU216DAVISVP2,2013-01-14 10:03:00,
2013-01-14 05:08:00,46.2,41.9,29.99,West,269,3.0,12.0,85,0.00,,,0.00,WUHU216DAVISVP2,2013-01-14 10:08:00,
2013-01-14 05:13:00,46.2,41.9,29.99,WNW,288,2.0,10.0,85,0.00,,,0.00,WUHU216DAVISVP2,2013-01-14 10:13:00,
2013-01-14 05:18:00,46.2,41.9,29.99,NW,326,1.0,10.0,85,0.00,,,0.00,WUHU216DAVISVP2,2013-01-14 10:18:00,
2013-01-14 05:23:00,46.1,41.8,30.00,SW,221,1.0,10.0,85,0.00,,,0.00,WUHU216DAVISVP2,2013-01-14 10:23:00,
2013-01-14 05:28:00,46.0,41.7,30.00,NW,325,2.0,10.0,85,0.00,,,0.00,WUHU216DAVISVP2,2013-01-14 10:28:00,
2013-01-14 05:33:00,45.9,41.6,30.00,WSW,243,6.0,10.0,85,0.00,,,0.00,WUHU216DAVISVP2,2013-01-14 10:33:00,
2013-01-14 05:38:00,45.9,41.6,30.01,West,280,4.0,10.0,85,0.00,,,0.00,WUHU216DAVISVP2,2013-01-14 10:38:00,
2013-01-14 05:43:00,45.8,41.5,30.01,West,281,7.0,10.0,85,0.00,,,0.00,WUHU216DAVISVP2,2013-01-14 10:43:00,
2013-01-14 05:48:00,45.7,41.4,30.02,West,273,9.0,11.0,85,0.00,,,0.00,WUHU216DAVISVP2,2013-01-14 10:48:00,
2013-01-14 05:53:00,45.6,41.3,30.02,WNW,288,8.0,12.0,85,0.00,,,0.00,WUHU216DAVISVP2,2013-01-14 10:53:00,
2013-01-14 05:58:00,45.5,41.2,30.02,NW,310,3.0,12.0,85,0.00,,,0.00,WUHU216DAVISVP2,2013-01-14 10:58:00,
2013-01-14 06:03:00,45.3,41.0,30.03,WNW,294,6.0,13.0,85,0.00,,,0.00,WUHU216DAVISVP2,2013-01-14 11:03:00,
2013-01-14 06:08:00,45.3,41.0,30.03,WNW,302,6.0,13.0,85,0.00,,,0.00,WUHU216DAVISVP2,2013-01-14 11:08:00,
2013-01-14 06:13:00,45.2,40.7,30.04,WNW,293,3.0,13.0,84,0.00,,,0.00,WUHU216DAVISVP2,2013-01-14 11:13:00,
2013-01-14 06:18:00,45.1,40.5,30.04,West,271,2.0,13.0,84,0.00,,,0.00,WUHU216DAVISVP2,2013-01-14 11:18:00,
2013-01-14 06:23:00,45.1,40.2,30.06,North,353,6.0,12.0,83,0.00,,,0.00,WUHU216DAVISVP2,2013-01-14 11:23:00,
2013-01-14 06:28:00,45.0,39.8,30.06,WNW,299,8.0,17.0,82,0.00,,,0.00,WUHU216DAVISVP2,2013-01-14 11:28:00,
2013-01-14 06:33:00,44.9,39.7,30.06,NW,321,3.0,19.0,82,0.00,,,0.00,WUHU216DAVISVP2,2013-01-14 11:33:00,
2013-01-14 06:38:00,44.8,39.6,30.07,WNW,286,7.0,19.0,82,0.00,,,0.00,WUHU216DAVISVP2,2013-01-14 11:38:00,
2013-01-14 06:43:00,44.6,39.5,30.08,NNW,334,5.0,19.0,82,0.00,,,0.00,WUHU216DAVISVP2,2013-01-14 11:43:00,
2013-01-14 06:48:00,44.4,39.0,30.08,NW,321,5.0,16.0,81,0.00,,,0.00,WUHU216DAVISVP2,2013-01-14 11:48:00,
2013-01-14 06:53:00,44.1,38.7,30.09,West,260,5.0,19.0,81,0.00,,,0.00,WUHU216DAVISVP2,2013-01-14 11:53:00,
2013-01-14 06:58:00,43.8,37.7,30.09,WNW,297,6.0,19.0,79,0.00,,,0.00,WUHU216DAVISVP2,2013-01-14 11:58:00,
2013-01-14 07:03:00,43.6,37.5,30.10,NW,316,7.0,19.0,79,0.00,,,0.00,WUHU216DAVISVP2,2013-01-14 12:03:00,
2013-01-14 07:08:00,43.5,37.5,30.10,NW,319,3.0,20.0,79,0.00,,,0.00,WUHU216DAVISVP2,2013-01-14 12:08:00,
2013-01-14 07:13:00,43.3,37.2,30.11,NNW,330,6.0,20.0,79,0.00,,,0.00,WUHU216DAVISVP2,2013-01-14 12:13:00,
2013-01-14 07:18:00,43.3,37.2,30.11,NNW,329,4.0,20.0,79,0.00,,,0.00,WUHU216DAVISVP2,2013-01-14 12:18:00,
2013-01-14 07:23:00,43.2,37.2,30.12,WNW,294,4.0,20.0,79,0.00,,,0.00,WUHU216DAVISVP2,2013-01-14 12:23:00,
2013-01-14 07:28:00,43.0,37.0,30.12,WNW,295,10.0,19.0,79,0.00,,,0.00,WUHU216DAVISVP2,2013-01-14 12:28:00,
2013-01-14 07:33:00,42.9,36.9,30.13,WNW,291,6.0,15.0,79,0.00,,,0.00,WUHU216DAVISVP2,2013-01-14 12:33:00,
2013-01-14 07:38:00,42.8,37.1,30.13,WNW,300,5.0,14.0,80,0.00,,,0.00,WUHU216DAVISVP2,2013-01-14 12:38:00,
2013-01-14 07:43:00,42.7,37.0,30.13,NW,307,3.0,13.0,80,0.00,,,0.00,WUHU216DAVISVP2,2013-01-14 12:43:00,
2013-01-14 07:48:00,42.6,36.9,30.14,West,273,11.0,13.0,80,0.00,,,0.00,WUHU216DAVISVP2,2013-01-14 12:48:00,
2013-01-14 07:53:00,42.5,36.5,30.14,NW,326,5.0,16.0,79,0.00,,,0.00,WUHU216DAVISVP2,2013-01-14 12:53:00,
2013-01-14 07:58:00,42.4,36.7,30.14,NNW,337,5.0,16.0,80,0.00,,,0.00,WUHU216DAVISVP2,2013-01-14 12:58:00,
2013-01-14 08:03:00,42.2,35.9,30.15,NNW,327,17.0,20.0,78,0.00,,,0.00,WUHU216DAVISVP2,2013-01-14 13:03:00,
2013-01-14 08:08:00,42.1,35.5,30.14,NW,312,6.0,21.0,77,0.00,,,0.00,WUHU216DAVISVP2,2013-01-14 13:08:00,
2013-01-14 08:13:00,42.0,35.0,30.15,WSW,257,6.0,21.0,76,0.00,,,0.00,WUHU216DAVISVP2,2013-01-14 13:13:00,
2013-01-14 08:18:00,41.9,35.3,30.15,WSW,253,11.0,21.0,77,0.00,,,0.00,WUHU216DAVISVP2,2013-01-14 13:18:00,
2013-01-14 08:23:00,41.9,34.9,30.16,WNW,302,17.0,19.0,76,0.00,,,0.00,WUHU216DAVISVP2,2013-01-14 13:23:00,
2013-01-14 08:28:00,41.7,34.7,30.17,WSW,255,7.0,21.0,76,0.00,,,0.00,WUHU216DAVISVP2,2013-01-14 13:28:00,
2013-01-14 08:33:00,41.6,34.3,30.17,West,273,5.0,21.0,75,0.00,,,0.00,WUHU216DAVISVP2,2013-01-14 13:33:00,
2013-01-14 08:38:00,41.3,33.7,30.18,WNW,291,8.0,21.0,74,0.00,,,0.00,WUHU216DAVISVP2,2013-01-14 13:38:00,
2013-01-14 08:44:00,41.2,32.6,30.18,WNW,287,5.0,19.0,71,0.00,,,0.00,WUHU216DAVISVP2,2013-01-14 13:44:00,
2013-01-14 08:48:00,41.3,32.7,30.19,WNW,289,7.0,19.0,71,0.00,,,0.00,WUHU216DAVISVP2,2013-01-14 13:48:00,
2013-01-14 08:54:00,41.4,32.1,30.19,SW,228,2.0,21.0,69,0.00,,,0.00,WUHU216DAVISVP2,2013-01-14 13:54:00,
2013-01-14 08:59:00,41.4,32.8,30.20,NW,304,5.0,21.0,71,0.00,,,0.00,WUHU216DAVISVP2,2013-01-14 13:59:00,
2013-01-14 09:04:00,41.4,32.8,30.20,WNW,288,10.0,21.0,71,0.00,,,0.00,WUHU216DAVISVP2,2013-01-14 14:04:00,
2013-01-14 09:09:00,41.2,32.6,30.19,WNW,293,6.0,18.0,71,0.00,,,0.00,WUHU216DAVISVP2,2013-01-14 14:09:00,
2013-01-14 09:14:00,41.3,32.0,30.20,NNW,336,5.0,18.0,69,0.00,,,0.00,WUHU216DAVISVP2,2013-01-14 14:14:00,
2013-01-14 09:19:00,41.4,31.7,30.20,NW,325,8.0,18.0,68,0.00,,,0.00,WUHU216DAVISVP2,2013-01-14 14:19:00,
2013-01-14 09:24:00,41.6,31.9,30.21,NW,326,8.0,18.0,68,0.00,,,0.00,WUHU216DAVISVP2,2013-01-14 14:24:00,
2013-01-14 09:29:00,41.4,31.3,30.21,West,276,12.0,18.0,67,0.00,,,0.00,WUHU216DAVISVP2,2013-01-14 14:29:00,
2013-01-14 09:34:00,41.1,31.4,30.22,WNW,294,12.0,18.0,68,0.00,,,0.00,WUHU216DAVISVP2,2013-01-14 14:34:00,
2013-01-14 09:39:00,40.9,30.5,30.22,NW,323,8.0,20.0,66,0.00,,,0.00,WUHU216DAVISVP2,2013-01-14 14:39:00,
2013-01-14 09:44:00,41.0,31.0,30.23,NW,315,15.0,20.0,67,0.00,,,0.00,WUHU216DAVISVP2,2013-01-14 14:44:00,
2013-01-14 09:48:00,40.9,30.8,30.23,WNW,302,9.0,20.0,67,0.00,,,0.00,WUHU216DAVISVP2,2013-01-14 14:48:00,
2013-01-14 09:53:00,40.7,30.6,30.23,WNW,297,5.0,20.0,67,0.00,,,0.00,WUHU216DAVISVP2,2013-01-14 14:53:00,
2013-01-14 09:58:00,40.6,30.5,30.23,NW,313,6.0,19.0,67,0.00,,,0.00,WUHU216DAVISVP2,2013-01-14 14:58:00,
2013-01-14 10:03:00,40.6,30.6,30.24,NW,325,7.0,19.0,67,0.00,,,0.00,WUHU216DAVISVP2,2013-01-14 15:03:00,
2013-01-14 10:08:00,40.6,30.5,30.24,NW,321,9.0,19.0,67,0.00,,,0.00,WUHU216DAVISVP2,2013-01-14 15:08:00,
2013-01-14 10:13:00,40.5,30.0,30.24,West,280,10.0,19.0,66,0.00,,,0.00,WUHU216DAVISVP2,2013-01-14 15:13:00,
2013-01-14 10:18:00,40.7,30.7,30.24,WNW,290,8.0,19.0,67,0.00,,,0.00,WUHU216DAVISVP2,2013-01-14 15:18:00,
2013-01-14 10:23:00,40.8,30.4,30.25,WNW,284,10.0,19.0,66,0.00,,,0.00,WUHU216DAVISVP2,2013-01-14 15:23:00,
2013-01-14 10:28:00,40.5,30.0,30.25,WNW,285,12.0,19.0,66,0.00,,,0.00,WUHU216DAVISVP2,2013-01-14 15:28:00,
2013-01-14 10:34:00,40.3,30.3,30.26,NNW,335,9.0,19.0,67,0.00,,,0.00,WUHU216DAVISVP2,2013-01-14 15:34:00,
2013-01-14 10:39:00,40.2,30.2,30.26,West,273,6.0,19.0,67,0.00,,,0.00,WUHU216DAVISVP2,2013-01-14 15:39:00,
2013-01-14 10:44:00,39.8,29.4,30.26,WNW,290,18.0,22.0,66,0.00,,,0.00,WUHU216DAVISVP2,2013-01-14 15:44:00,
2013-01-14 10:49:00,39.5,29.9,30.26,WNW,284,15.0,22.0,68,0.00,,,0.00,WUHU216DAVISVP2,2013-01-14 15:49:00,
2013-01-14 10:54:00,39.2,30.3,30.26,NW,321,8.0,22.0,70,0.00,,,0.00,WUHU216DAVISVP2,2013-01-14 15:54:00,
2013-01-14 10:59:00,39.3,30.4,30.27,NNW,347,5.0,22.0,70,0.00,,,0.00,WUHU216DAVISVP2,2013-01-14 15:59:00,
2013-01-14 11:04:00,39.1,29.9,30.27,NW,326,7.0,19.0,69,0.00,,,0.00,WUHU216DAVISVP2,2013-01-14 16:04:00,
2013-01-14 11:09:00,39.1,30.2,30.27,WNW,298,10.0,19.0,70,0.00,,,0.00,WUHU216DAVISVP2,2013-01-14 16:09:00,
2013-01-14 11:14:00,38.8,30.3,30.27,NW,306,5.0,19.0,71,0.00,,,0.00,WUHU216DAVISVP2,2013-01-14 16:14:00,
2013-01-14 11:19:00,38.8,30.3,30.27,NW,316,6.0,18.0,71,0.00,,,0.00,WUHU216DAVISVP2,2013-01-14 16:19:00,
2013-01-14 11:24:00,38.6,30.0,30.27,West,280,5.0,16.0,71,0.00,,,0.00,WUHU216DAVISVP2,2013-01-14 16:24:00,
2013-01-14 11:29:00,38.7,30.1,30.27,NW,307,9.0,16.0,71,0.00,,,0.00,WUHU216DAVISVP2,2013-01-14 16:29:00,
2013-01-14 11:34:00,38.7,30.2,30.28,NW,321,7.0,16.0,71,0.00,,,0.00,WUHU216DAVISVP2,2013-01-14 16:34:00,
2013-01-14 11:39:00,38.9,29.3,30.27,West,267,8.0,16.0,68,0.00,,,0.00,WUHU216DAVISVP2,2013-01-14 16:39:00,
2013-01-14 11:44:00,38.7,29.1,30.27,WNW,297,5.0,16.0,68,0.00,,,0.00,WUHU216DAVISVP2,2013-01-14 16:44:00,
2013-01-14 11:49:00,38.6,29.0,30.27,WNW,288,5.0,16.0,68,0.00,,,0.00,WUHU216DAVISVP2,2013-01-14 16:49:00,
2013-01-14 11:54:00,38.5,29.3,30.28,WNW,301,4.0,16.0,69,0.00,,,0.00,WUHU216DAVISVP2,2013-01-14 16:54:00,
2013-01-14 11:59:00,38.5,29.3,30.28,West,260,5.0,16.0,69,0.00,,,0.00,WUHU216DAVISVP2,2013-01-14 16:59:00,
2013-01-14 12:04:00,37.9,28.0,30.28,NW,317,8.0,16.0,67,0.00,,,0.00,WUHU216DAVISVP2,2013-01-14 17:04:00,
2013-01-14 12:09:00,37.7,28.2,30.27,WNW,297,4.0,16.0,68,0.00,,,0.00,WUHU216DAVISVP2,2013-01-14 17:09:00,
2013-01-14 12:14:00,37.7,27.8,30.27,West,279,8.0,16.0,67,0.00,,,0.00,WUHU216DAVISVP2,2013-01-14 17:14:00,
2013-01-14 12:19:00,37.8,28.6,30.28,WNW,302,3.0,16.0,69,0.00,,,0.00,WUHU216DAVISVP2,2013-01-14 17:19:00,
2013-01-14 12:24:00,37.7,27.7,30.27,NW,311,9.0,14.0,67,0.00,,,0.00,WUHU216DAVISVP2,2013-01-14 17:24:00,
2013-01-14 12:29:00,37.4,27.1,30.28,NW,315,4.0,14.0,66,0.00,,,0.00,WUHU216DAVISVP2,2013-01-14 17:29:00,
2013-01-14 12:34:00,37.1,27.2,30.28,NNW,330,11.0,14.0,67,0.00,,,0.00,WUHU216DAVISVP2,2013-01-14 17:34:00,
2013-01-14 12:39:00,36.7,26.8,30.28,NNW,330,10.0,16.0,67,0.00,,,0.00,WUHU216DAVISVP2,2013-01-14 17:39:00,
2013-01-14 12:44:00,36.4,26.6,30.28,WNW,288,11.0,16.0,67,0.00,,,0.00,WUHU216DAVISVP2,2013-01-14 17:44:00,
2013-01-14 12:49:00,36.3,26.8,30.28,WNW,291,5.0,16.0,68,0.00,,,0.00,WUHU216DAVISVP2,2013-01-14 17:49:00,
2013-01-14 12:54:00,36.1,26.3,30.28,North,357,9.0,17.0,67,0.00,,,0.00,WUHU216DAVISVP2,2013-01-14 17:54:00,
2013-01-14 12:59:00,36.1,26.3,30.28,NNW,340,12.0,17.0,67,0.00,,,0.00,WUHU216DAVISVP2,2013-01-14 17:59:00,
2013-01-14 13:04:00,36.0,25.8,30.27,North,1,6.0,16.0,66,0.00,,,0.00,WUHU216DAVISVP2,2013-01-14 18:04:00,
2013-01-14 13:09:00,36.1,25.9,30.28,West,277,6.0,16.0,66,0.00,,,0.00,WUHU216DAVISVP2,2013-01-14 18:09:00,
2013-01-14 13:14:00,36.0,25.8,30.28,NNW,332,3.0,16.0,66,0.00,,,0.00,WUHU216DAVISVP2,2013-01-14 18:14:00,
2013-01-14 13:19:00,36.1,25.9,30.28,WNW,302,7.0,16.0,66,0.00,,,0.00,WUHU216DAVISVP2,2013-01-14 18:19:00,
2013-01-14 13:24:00,36.3,25.7,30.29,NNW,335,3.0,16.0,65,0.00,,,0.00,WUHU216DAVISVP2,2013-01-14 18:24:00,
2013-01-14 13:29:00,36.5,25.5,30.29,NNW,329,7.0,16.0,64,0.00,,,0.00,WUHU216DAVISVP2,2013-01-14 18:29:00,
2013-01-14 13:34:00,36.4,25.1,30.29,NW,313,9.0,14.0,63,0.00,,,0.00,WUHU216DAVISVP2,2013-01-14 18:34:00,
2013-01-14 13:39:00,36.2,24.9,30.29,North,354,4.0,13.0,63,0.00,,,0.00,WUHU216DAVISVP2,2013-01-14 18:39:00,
2013-01-14 13:44:00,36.1,24.0,30.29,NW,311,4.0,14.0,61,0.00,,,0.00,WUHU216DAVISVP2,2013-01-14 18:44:00,
2013-01-14 13:49:00,36.2,24.0,30.30,WNW,289,5.0,14.0,61,0.00,,,0.00,WUHU216DAVISVP2,2013-01-14 18:49:00,
2013-01-14 13:54:00,36.2,24.5,30.30,NW,319,5.0,14.0,62,0.00,,,0.00,WUHU216DAVISVP2,2013-01-14 18:54:00,
2013-01-14 13:59:00,36.3,24.6,30.30,NW,308,8.0,14.0,62,0.00,,,0.00,WUHU216DAVISVP2,2013-01-14 18:59:00,
2013-01-14 14:04:00,36.1,24.4,30.30,NW,316,8.0,12.0,62,0.00,,,0.00,WUHU216DAVISVP2,2013-01-14 19:04:00,
2013-01-14 14:09:00,35.9,24.5,30.30,WNW,302,9.0,13.0,63,0.00,,,0.00,WUHU216DAVISVP2,2013-01-14 19:09:00,
2013-01-14 14:14:00,35.8,24.4,30.30,WNW,286,6.0,14.0,63,0.00,,,0.00,WUHU216DAVISVP2,2013-01-14 19:14:00,
2013-01-14 14:19:00,35.8,24.1,30.31,WNW,295,11.0,15.0,62,0.00,,,0.00,WUHU216DAVISVP2,2013-01-14 19:19:00,
2013-01-14 14:24:00,35.6,23.9,30.31,NW,316,5.0,15.0,62,0.00,,,0.00,WUHU216DAVISVP2,2013-01-14 19:24:00,
2013-01-14 14:29:00,35.6,24.3,30.31,West,276,4.0,15.0,63,0.00,,,0.00,WUHU216DAVISVP2,2013-01-14 19:29:00,
2013-01-14 14:34:00,35.7,24.4,30.31,WNW,293,10.0,15.0,63,0.00,,,0.00,WUHU216DAVISVP2,2013-01-14 19:34:00,
2013-01-14 14:39:00,35.7,24.0,30.31,NW,319,4.0,14.0,62,0.00,,,0.00,WUHU216DAVISVP2,2013-01-14 19:39:00,
2013-01-14 14:44:00,35.9,24.6,30.31,NNW,343,1.0,14.0,63,0.00,,,0.00,WUHU216DAVISVP2,2013-01-14 19:44:00,
2013-01-14 14:49:00,35.9,23.8,30.31,North,357,6.0,14.0,61,0.00,,,0.00,WUHU216DAVISVP2,2013-01-14 19:49:00,
2013-01-14 14:54:00,35.7,24.0,30.31,West,278,2.0,14.0,62,0.00,,,0.00,WUHU216DAVISVP2,2013-01-14 19:54:00,
2013-01-14 14:59:00,35.7,23.6,30.31,North,353,4.0,12.0,61,0.00,,,0.00,WUHU216DAVISVP2,2013-01-14 19:59:00,
2013-01-14 15:04:00,35.6,23.1,30.31,NW,313,5.0,12.0,60,0.00,,,0.00,WUHU216DAVISVP2,2013-01-14 20:04:00,
2013-01-14 15:09:00,35.6,23.1,30.30,NNE,14,0.0,9.0,60,0.00,,,0.00,WUHU216DAVISVP2,2013-01-14 20:09:00,
2013-01-14 15:14:00,35.7,23.2,30.30,North,352,2.0,8.0,60,0.00,,,0.00,WUHU216DAVISVP2,2013-01-14 20:14:00,
2013-01-14 15:19:00,35.7,24.0,30.30,NNW,332,2.0,8.0,62,0.00,,,0.00,WUHU216DAVISVP2,2013-01-14 20:19:00,
2013-01-14 15:24:00,35.7,24.0,30.30,NW,314,5.0,10.0,62,0.00,,,0.00,WUHU216DAVISVP2,2013-01-14 20:24:00,
2013-01-14 15:29:00,35.6,23.9,30.30,NNW,341,4.0,10.0,62,0.00,,,0.00,WUHU216DAVISVP2,2013-01-14 20:29:00,
2013-01-14 15:34:00,35.7,24.0,30.30,NW,323,2.0,10.0,62,0.00,,,0.00,WUHU216DAVISVP2,2013-01-14 20:34:00,
2013-01-14 15:39:00,35.6,24.3,30.31,NW,311,1.0,10.0,63,0.00,,,0.00,WUHU216DAVISVP2,2013-01-14 20:39:00,
2013-01-14 15:44:00,35.5,24.2,30.31,WSW,242,3.0,10.0,63,0.00,,,0.00,WUHU216DAVISVP2,2013-01-14 20:44:00,
2013-01-14 15:49:00,35.4,24.1,30.30,North,11,6.0,10.0,63,0.00,,,0.00,WUHU216DAVISVP2,2013-01-14 20:49:00,
2013-01-14 15:54:00,35.3,24.4,30.28,North,5,1.0,9.0,64,0.00,,,0.00,WUHU216DAVISVP2,2013-01-14 20:54:00,
2013-01-14 15:59:00,35.3,24.8,30.28,West,271,2.0,9.0,65,0.00,,,0.00,WUHU216DAVISVP2,2013-01-14 20:59:00,
2013-01-14 16:04:00,35.2,24.7,30.29,NW,310,6.0,10.0,65,0.00,,,0.00,WUHU216DAVISVP2,2013-01-14 21:04:00,
2013-01-14 16:09:00,34.9,24.0,30.30,WNW,289,6.0,10.0,64,0.00,,,0.00,WUHU216DAVISVP2,2013-01-14 21:09:00,
2013-01-14 16:14:00,34.9,24.4,30.30,WNW,288,3.0,10.0,65,0.00,,,0.00,WUHU216DAVISVP2,2013-01-14 21:14:00,
2013-01-14 16:19:00,34.8,24.3,30.30,North,352,4.0,10.0,65,0.00,,,0.00,WUHU216DAVISVP2,2013-01-14 21:19:00,
2013-01-14 16:24:00,34.8,24.7,30.30,WNW,297,3.0,9.0,66,0.00,,,0.00,WUHU216DAVISVP2,2013-01-14 21:24:00,
2013-01-14 16:29:00,34.8,24.7,30.31,NW,319,3.0,9.0,66,0.00,,,0.00,WUHU216DAVISVP2,2013-01-14 21:29:00,
2013-01-14 16:34:00,34.8,24.7,30.31,WNW,298,5.0,10.0,66,0.00,,,0.00,WUHU216DAVISVP2,2013-01-14 21:34:00,
2013-01-14 16:39:00,34.7,24.1,30.32,West,277,3.0,10.0,65,0.00,,,0.00,WUHU216DAVISVP2,2013-01-14 21:39:00,
2013-01-14 16:44:00,34.7,24.6,30.32,WNW,291,6.0,10.0,66,0.00,,,0.00,WUHU216DAVISVP2,2013-01-14 21:44:00,
2013-01-14 16:49:00,34.7,24.6,30.32,NNW,337,2.0,9.0,66,0.00,,,0.00,WUHU216DAVISVP2,2013-01-14 21:49:00,
2013-01-14 16:54:00,34.6,24.5,30.33,WNW,293,8.0,11.0,66,0.00,,,0.00,WUHU216DAVISVP2,2013-01-14 21:54:00,
2013-01-14 16:59:00,34.5,24.4,30.34,NW,314,4.0,12.0,66,0.00,,,0.00,WUHU216DAVISVP2,2013-01-14 21:59:00,
2013-01-14 17:03:00,34.4,23.5,30.34,NW,312,8.0,17.0,64,0.00,,,0.00,WUHU216DAVISVP2,2013-01-14 22:03:00,
2013-01-14 17:09:00,34.3,23.0,30.34,WNW,284,6.0,17.0,63,0.00,,,0.00,WUHU216DAVISVP2,2013-01-14 22:09:00,
2013-01-14 17:14:00,34.3,22.7,30.34,North,350,9.0,17.0,62,0.00,,,0.00,WUHU216DAVISVP2,2013-01-14 22:14:00,
2013-01-14 17:19:00,34.2,22.6,30.33,NW,312,4.0,17.0,62,0.00,,,0.00,WUHU216DAVISVP2,2013-01-14 22:19:00,
2013-01-14 17:23:00,34.1,22.1,30.33,WNW,286,5.0,13.0,61,0.00,,,0.00,WUHU216DAVISVP2,2013-01-14 22:23:00,
2013-01-14 17:29:00,34.1,22.1,30.34,NNW,342,5.0,13.0,61,0.00,,,0.00,WUHU216DAVISVP2,2013-01-14 22:29:00,
2013-01-14 17:33:00,34.1,22.1,30.36,NW,325,3.0,13.0,61,0.00,,,0.00,WUHU216DAVISVP2,2013-01-14 22:33:00,
2013-01-14 17:39:00,34.1,21.7,30.37,WNW,287,5.0,13.0,60,0.00,,,0.00,WUHU216DAVISVP2,2013-01-14 22:39:00,
2013-01-14 17:44:00,34.1,22.1,30.37,West,269,4.0,12.0,61,0.00,,,0.00,WUHU216DAVISVP2,2013-01-14 22:44:00,
2013-01-14 17:49:00,34.1,22.1,30.38,NW,316,2.0,12.0,61,0.00,,,0.00,WUHU216DAVISVP2,2013-01-14 22:49:00,
2013-01-14 17:54:00,34.0,22.0,30.37,NW,311,6.0,11.0,61,0.00,,,0.00,WUHU216DAVISVP2,2013-01-14 22:54:00,
2013-01-14 17:59:00,34.0,22.0,30.36,NW,313,1.0,11.0,61,0.00,,,0.00,WUHU216DAVISVP2,2013-01-14 22:59:00,
2013-01-14 18:04:00,33.9,21.9,30.36,NW,323,1.0,7.0,61,0.00,,,0.00,WUHU216DAVISVP2,2013-01-14 23:04:00,
2013-01-14 18:08:00,33.9,21.9,30.36,West,274,1.0,7.0,61,0.00,,,0.00,WUHU216DAVISVP2,2013-01-14 23:08:00,
2013-01-14 18:13:00,33.8,22.2,30.35,NW,326,4.0,5.0,62,0.00,,,0.00,WUHU216DAVISVP2,2013-01-14 23:13:00,
2013-01-14 18:18:00,33.7,22.9,30.35,NNW,332,2.0,9.0,64,0.00,,,0.00,WUHU216DAVISVP2,2013-01-14 23:18:00,
2013-01-14 18:24:00,33.6,24.2,30.35,NNW,340,4.0,9.0,68,0.00,,,0.00,WUHU216DAVISVP2,2013-01-14 23:24:00,
2013-01-14 18:28:00,33.4,25.1,30.34,NNW,334,1.0,9.0,71,0.00,,,0.00,WUHU216DAVISVP2,2013-01-14 23:28:00,
2013-01-14 18:33:00,33.2,25.2,30.35,NNW,330,3.0,9.0,72,0.00,,,0.00,WUHU216DAVISVP2,2013-01-14 23:33:00,
2013-01-14 18:38:00,33.1,25.1,30.36,North,1,5.0,8.0,72,0.00,,,0.00,WUHU216DAVISVP2,2013-01-14 23:38:00,
2013-01-14 18:43:00,32.9,24.9,30.37,NNW,337,3.0,9.0,72,0.00,,,0.00,WUHU216DAVISVP2,2013-01-14 23:43:00,
2013-01-14 18:48:00,32.9,24.9,30.37,NW,308,2.0,9.0,72,0.00,,,0.00,WUHU216DAVISVP2,2013-01-14 23:48:00,
2013-01-14 18:54:00,32.8,25.1,30.37,NNW,330,3.0,9.0,73,0.00,,,0.00,WUHU216DAVISVP2,2013-01-14 23:54:00,
2013-01-14 18:59:00,32.8,25.1,30.37,NNW,330,2.0,9.0,73,0.00,,,0.00,WUHU216DAVISVP2,2013-01-14 23:59:00,
2013-01-14 19:04:00,32.7,25.1,30.37,NNE,15,3.0,6.0,73,0.00,,,0.00,WUHU216DAVISVP2,2013-01-15 00:04:00,
2013-01-14 19:09:00,32.7,25.1,30.38,NNW,328,1.0,6.0,73,0.00,,,0.00,WUHU216DAVISVP2,2013-01-15 00:09:00,
2013-01-14 19:14:00,32.6,24.6,30.39,NNW,335,3.0,6.0,72,0.00,,,0.00,WUHU216DAVISVP2,2013-01-15 00:14:00,
2013-01-14 19:19:00,32.6,24.6,30.39,NNW,337,2.0,6.0,72,0.00,,,0.00,WUHU216DAVISVP2,2013-01-15 00:19:00,
2013-01-14 19:24:00,32.6,24.2,30.39,NW,326,8.0,10.0,71,0.00,,,0.00,WUHU216DAVISVP2,2013-01-15 00:24:00,
2013-01-14 19:29:00,32.5,24.5,30.39,NW,304,3.0,10.0,72,0.00,,,0.00,WUHU216DAVISVP2,2013-01-15 00:29:00,
2013-01-14 19:34:00,32.5,24.5,30.39,North,353,1.0,10.0,72,0.00,,,0.00,WUHU216DAVISVP2,2013-01-15 00:34:00,
2013-01-14 19:39:00,32.4,24.4,30.38,North,349,4.0,10.0,72,0.00,,,0.00,WUHU216DAVISVP2,2013-01-15 00:39:00,
2013-01-14 19:44:00,32.4,24.0,30.38,NW,316,4.0,9.0,71,0.00,,,0.00,WUHU216DAVISVP2,2013-01-15 00:44:00,
2013-01-14 19:49:00,32.3,24.0,30.37,NNE,18,7.0,10.0,71,0.00,,,0.00,WUHU216DAVISVP2,2013-01-15 00:49:00,
2013-01-14 19:54:00,32.3,24.0,30.37,NW,316,2.0,10.0,71,0.00,,,0.00,WUHU216DAVISVP2,2013-01-15 00:54:00,
2013-01-14 19:59:00,32.3,24.3,30.36,NW,311,1.0,10.0,72,0.00,,,0.00,WUHU216DAVISVP2,2013-01-15 00:59:00,
2013-01-14 20:04:00,32.2,23.9,30.36,North,349,3.0,10.0,71,0.00,,,0.00,WUHU216DAVISVP2,2013-01-15 01:04:00,
2013-01-14 20:09:00,32.2,24.2,30.36,North,358,2.0,6.0,72,0.00,,,0.00,WUHU216DAVISVP2,2013-01-15 01:09:00,
2013-01-14 20:14:00,32.1,23.8,30.35,NNW,337,2.0,5.0,71,0.00,,,0.00,WUHU216DAVISVP2,2013-01-15 01:14:00,
2013-01-14 20:19:00,32.1,24.1,30.34,NNW,335,4.0,6.0,72,0.00,,,0.00,WUHU216DAVISVP2,2013-01-15 01:19:00,
2013-01-14 20:24:00,32.0,24.0,30.34,NNW,333,3.0,6.0,72,0.00,,,0.00,WUHU216DAVISVP2,2013-01-15 01:24:00,
2013-01-14 20:29:00,32.0,24.0,30.36,NNW,335,3.0,6.0,72,0.00,,,0.00,WUHU216DAVISVP2,2013-01-15 01:29:00,
2013-01-14 20:34:00,32.0,24.0,30.36,NNW,337,2.0,6.0,72,0.00,,,0.00,WUHU216DAVISVP2,2013-01-15 01:34:00,
2013-01-14 20:39:00,31.9,23.9,30.35,NNW,336,2.0,6.0,72,0.00,,,0.00,WUHU216DAVISVP2,2013-01-15 01:39:00,
2013-01-14 20:44:00,31.9,24.2,30.34,NW,325,4.0,6.0,73,0.00,,,0.00,WUHU216DAVISVP2,2013-01-15 01:44:00,
2013-01-14 20:49:00,31.8,24.2,30.34,North,353,3.0,7.0,73,0.00,,,0.00,WUHU216DAVISVP2,2013-01-15 01:49:00,
2013-01-14 20:54:00,31.8,24.2,30.35,NW,319,4.0,7.0,73,0.00,,,0.00,WUHU216DAVISVP2,2013-01-15 01:54:00,
2013-01-14 20:59:00,31.8,24.2,30.36,NW,311,5.0,7.0,73,0.00,,,0.00,WUHU216DAVISVP2,2013-01-15 01:59:00,
2013-01-14 21:03:00,31.8,24.5,30.36,NW,326,2.0,8.0,74,0.00,,,0.00,WUHU216DAVISVP2,2013-01-15 02:03:00,
2013-01-14 21:08:00,31.8,24.5,30.36,NNW,337,4.0,8.0,74,0.00,,,0.00,WUHU216DAVISVP2,2013-01-15 02:08:00,
2013-01-14 21:13:00,31.8,24.5,30.36,WNW,294,4.0,8.0,74,0.00,,,0.00,WUHU216DAVISVP2,2013-01-15 02:13:00,
2013-01-14 21:18:00,31.8,24.5,30.36,WNW,300,5.0,9.0,74,0.00,,,0.00,WUHU216DAVISVP2,2013-01-15 02:18:00,
2013-01-14 21:23:00,31.8,24.5,30.37,WNW,297,5.0,9.0,74,0.00,,,0.00,WUHU216DAVISVP2,2013-01-15 02:23:00,
2013-01-14 21:28:00,31.8,24.2,30.37,West,276,4.0,9.0,73,0.00,,,0.00,WUHU216DAVISVP2,2013-01-15 02:28:00,
2013-01-14 21:33:00,31.8,23.2,30.38,WNW,297,4.0,11.0,70,0.00,,,0.00,WUHU216DAVISVP2,2013-01-15 02:33:00,
2013-01-14 21:38:00,31.7,23.1,30.38,West,268,7.0,11.0,70,0.00,,,0.00,WUHU216DAVISVP2,2013-01-15 02:38:00,
2013-01-14 21:43:00,31.7,23.1,30.38,NW,306,3.0,11.0,70,0.00,,,0.00,WUHU216DAVISVP2,2013-01-15 02:43:00,
2013-01-14 21:48:00,31.7,22.8,30.39,WNW,290,3.0,11.0,69,0.00,,,0.00,WUHU216DAVISVP2,2013-01-15 02:48:00,
2013-01-14 21:53:00,31.7,22.8,30.39,WNW,300,9.0,11.0,69,0.00,,,0.00,WUHU216DAVISVP2,2013-01-15 02:53:00,
2013-01-14 21:58:00,31.6,22.7,30.39,NW,321,2.0,11.0,69,0.00,,,0.00,WUHU216DAVISVP2,2013-01-15 02:58:00,
2013-01-14 22:03:00,31.6,23.0,30.37,West,281,1.0,11.0,70,0.00,,,0.00,WUHU216DAVISVP2,2013-01-15 03:03:00,
2013-01-14 22:09:00,31.6,22.7,30.39,NNW,345,4.0,12.0,69,0.00,,,0.00,WUHU216DAVISVP2,2013-01-15 03:09:00,
2013-01-14 22:13:00,31.6,22.7,30.38,WSW,238,7.0,12.0,69,0.00,,,0.00,WUHU216DAVISVP2,2013-01-15 03:13:00,
2013-01-14 22:18:00,31.6,23.0,30.38,WNW,297,3.0,12.0,70,0.00,,,0.00,WUHU216DAVISVP2,2013-01-15 03:18:00,
2013-01-14 22:23:00,31.6,23.0,30.38,West,267,3.0,12.0,70,0.00,,,0.00,WUHU216DAVISVP2,2013-01-15 03:23:00,
2013-01-14 22:28:00,31.5,22.9,30.37,WNW,302,1.0,11.0,70,0.00,,,0.00,WUHU216DAVISVP2,2013-01-15 03:28:00,
2013-01-14 22:33:00,31.5,22.9,30.37,NW,304,1.0,9.0,70,0.00,,,0.00,WUHU216DAVISVP2,2013-01-15 03:33:00,
2013-01-14 22:38:00,31.4,22.8,30.39,West,280,5.0,7.0,70,0.00,,,0.00,WUHU216DAVISVP2,2013-01-15 03:38:00,
2013-01-14 22:43:00,31.4,22.5,30.38,NW,312,1.0,8.0,69,0.00,,,0.00,WUHU216DAVISVP2,2013-01-15 03:43:00,
2013-01-14 22:48:00,31.4,22.8,30.39,NW,308,4.0,8.0,70,0.00,,,0.00,WUHU216DAVISVP2,2013-01-15 03:48:00,
2013-01-14 22:53:00,31.3,22.7,30.38,NW,304,2.0,8.0,70,0.00,,,0.00,WUHU216DAVISVP2,2013-01-15 03:53:00,
2013-01-14 22:58:00,31.3,22.7,30.39,WNW,287,2.0,8.0,70,0.00,,,0.00,WUHU216DAVISVP2,2013-01-15 03:58:00,
2013-01-14 23:04:00,31.3,23.0,30.37,NW,315,3.0,8.0,71,0.00,,,0.00,WUHU216DAVISVP2,2013-01-15 04:04:00,
2013-01-14 23:08:00,31.2,22.9,30.38,West,264,3.0,7.0,71,0.00,,,0.00,WUHU216DAVISVP2,2013-01-15 04:08:00,
2013-01-14 23:13:00,31.2,22.9,30.36,WNW,302,1.0,7.0,71,0.00,,,0.00,WUHU216DAVISVP2,2013-01-15 04:13:00,
2013-01-14 23:18:00,31.1,22.8,30.37,West,276,1.0,8.0,71,0.00,,,0.00,WUHU216DAVISVP2,2013-01-15 04:18:00,
2013-01-14 23:23:00,31.1,22.9,30.36,WSW,255,2.0,8.0,71,0.00,,,0.00,WUHU216DAVISVP2,2013-01-15 04:23:00,
2013-01-14 23:28:00,31.1,22.9,30.35,NNW,341,2.0,8.0,71,0.00,,,0.00,WUHU216DAVISVP2,2013-01-15 04:28:00,
2013-01-14 23:33:00,31.0,22.8,30.36,West,272,0.0,8.0,71,0.00,,,0.00,WUHU216DAVISVP2,2013-01-15 04:33:00,
2013-01-14 23:39:00,31.1,22.5,30.36,WNW,287,3.0,7.0,70,0.00,,,0.00,WUHU216DAVISVP2,2013-01-15 04:39:00,
2013-01-14 23:44:00,31.1,22.5,30.36,NNW,328,1.0,7.0,70,0.00,,,0.00,WUHU216DAVISVP2,2013-01-15 04:44:00,
2013-01-14 23:49:00,31.0,22.4,30.35,NNW,338,4.0,7.0,70,0.00,,,0.00,WUHU216DAVISVP2,2013-01-15 04:49:00,
2013-01-14 23:54:00,31.0,22.4,30.35,NW,311,2.0,7.0,70,0.00,,,0.00,WUHU216DAVISVP2,2013-01-15 04:54:00,
2013-01-14 23:59:00,31.0,22.4,30.35,WNW,284,3.0,6.0,70,0.00,,,0.00,WUHU216DAVISVP2,2013-01-15 04:59:00,